Time;durP1;ratioP1;P1;durP2;ratioP2;P2;SDS_P1;SDS_P2;PMS_P1;PMS_P2;Temp;Humidity;BMP_temperature;BMP_pressure;BME280_temperature;BME280_humidity;BME280_pressure;Samples;Min_cycle;Max_cycle;Signal;HPM_P1;HPM_P2
2021/12/04 00:01:12;;;;;;;;;6.00;3.50;;;;;;;;5037688;28;45523;-68
2021/12/04 00:03:38;;;;;;;;;2.00;2.00;;;;;;;;5044812;28;45552;-69
2021/12/04 00:06:08;;;;;;;;;3.00;3.00;;;;;;;;5040235;28;45696;-69
2021/12/04 00:08:35;;;;;;;;;6.00;3.00;;;;;;;;5038618;28;45355;-69
2021/12/04 00:11:01;;;;;;;;;2.75;2.75;;;;;;;;5043200;28;45613;-69
2021/12/04 00:13:27;;;;;;;;;2.50;2.50;;;;;;;;5038813;28;45590;-69
2021/12/04 00:15:52;;;;;;;;;3.50;1.00;;;;;;;;5033977;28;45456;-69
2021/12/04 00:18:17;;;;;;;;;2.00;2.00;;;;;;;;5039108;28;46398;-69
2021/12/04 00:20:43;;;;;;;;;1.00;1.00;;;;;;;;5038130;28;45820;-69
2021/12/04 00:23:08;;;;;;;;;1.50;1.00;;;;;;;;5042550;28;45580;-69
2021/12/04 00:25:33;;;;;;;;;3.75;2.00;;;;;;;;5041438;28;45470;-69
2021/12/04 00:27:59;;;;;;;;;1.75;1.75;;;;;;;;5050310;28;46196;-69
2021/12/04 00:30:26;;;;;;;;;1.00;1.00;;;;;;;;5044943;28;45476;-69
2021/12/04 00:33:03;;;;;;;;;1.50;1.00;;;;;;;;5038567;28;45274;-69
2021/12/04 00:38:08;;;;;;;;;0.75;0.75;;;;;;;;5038320;28;45611;-69
2021/12/04 00:51:19;;;;;;;;;0.00;0.00;;;;;;;;5039919;28;45583;-69
2021/12/04 00:53:44;;;;;;;;;0.00;0.00;;;;;;;;5044588;28;45493;-69
2021/12/04 00:56:10;;;;;;;;;0.00;0.00;;;;;;;;5045608;28;45440;-69
2021/12/04 00:58:35;;;;;;;;;2.00;0.00;;;;;;;;5038642;28;46302;-69
2021/12/04 01:01:01;;;;;;;;;0.00;0.00;;;;;;;;5032157;28;45498;-69
2021/12/04 01:03:26;;;;;;;;;1.25;0.00;;;;;;;;5041325;28;45404;-69
2021/12/04 01:05:51;;;;;;;;;1.75;0.00;;;;;;;;5038379;28;45693;-69
2021/12/04 01:08:17;;;;;;;;;1.00;0.00;;;;;;;;5036650;28;46999;-69
2021/12/04 01:10:42;;;;;;;;;0.00;0.00;;;;;;;;5034816;28;46193;-69
2021/12/04 01:13:11;;;;;;;;;0.00;0.00;;;;;;;;5049135;28;45790;-69
2021/12/04 01:15:37;;;;;;;;;0.00;0.00;;;;;;;;5037059;28;45286;-69
2021/12/04 01:18:02;;;;;;;;;0.00;0.00;;;;;;;;5048083;28;46658;-69
2021/12/04 01:20:27;;;;;;;;;2.00;0.00;;;;;;;;5038412;28;45327;-69
2021/12/04 01:22:53;;;;;;;;;0.00;0.00;;;;;;;;5037544;28;45331;-69
2021/12/04 01:25:18;;;;;;;;;0.00;0.00;;;;;;;;5035596;28;45446;-69
2021/12/04 01:27:45;;;;;;;;;0.00;0.00;;;;;;;;5049989;28;46367;-69
2021/12/04 01:30:11;;;;;;;;;0.00;0.00;;;;;;;;5037974;28;45335;-69
2021/12/04 01:32:36;;;;;;;;;0.00;0.00;;;;;;;;5039622;28;45513;-69
2021/12/04 01:35:01;;;;;;;;;5.00;0.00;;;;;;;;5031848;28;45476;-69
2021/12/04 01:37:27;;;;;;;;;0.00;0.00;;;;;;;;5044452;28;48641;-69
2021/12/04 01:39:52;;;;;;;;;0.00;0.00;;;;;;;;5044054;28;45484;-69
2021/12/04 01:42:20;;;;;;;;;0.00;0.00;;;;;;;;5051832;28;45528;-69
2021/12/04 01:44:46;;;;;;;;;0.00;0.00;;;;;;;;5038884;28;45464;-69
2021/12/04 01:47:16;;;;;;;;;0.00;0.00;;;;;;;;5036147;28;46091;-69
2021/12/04 01:49:41;;;;;;;;;0.00;0.00;;;;;;;;5041793;28;45440;-68
2021/12/04 01:52:08;;;;;;;;;0.00;0.00;;;;;;;;5035259;28;45620;-69
2021/12/04 01:54:33;;;;;;;;;0.00;0.00;;;;;;;;5030094;28;45489;-69
2021/12/04 01:56:58;;;;;;;;;0.00;0.00;;;;;;;;5032672;28;46487;-69
2021/12/04 01:59:24;;;;;;;;;1.00;0.00;;;;;;;;5038036;28;45651;-68
2021/12/04 02:01:49;;;;;;;;;1.00;0.00;;;;;;;;5037368;28;45565;-69
2021/12/04 02:04:14;;;;;;;;;0.00;0.00;;;;;;;;5035495;28;45455;-69
2021/12/04 02:06:39;;;;;;;;;0.00;0.00;;;;;;;;5037162;28;45710;-68
2021/12/04 02:09:04;;;;;;;;;0.00;0.00;;;;;;;;5035016;28;45240;-69
2021/12/04 02:11:30;;;;;;;;;0.00;0.00;;;;;;;;5040009;28;45543;-68
2021/12/04 02:13:55;;;;;;;;;0.00;0.00;;;;;;;;5043246;28;45430;-69
2021/12/04 02:16:21;;;;;;;;;0.00;0.00;;;;;;;;5047078;28;46513;-69
2021/12/04 02:18:46;;;;;;;;;0.00;0.00;;;;;;;;5034326;28;45299;-69
2021/12/04 02:21:12;;;;;;;;;0.00;0.00;;;;;;;;5042790;28;45640;-69
2021/12/04 02:23:37;;;;;;;;;0.00;0.00;;;;;;;;5041596;28;45772;-69
2021/12/04 02:26:02;;;;;;;;;0.00;0.00;;;;;;;;5037572;28;45503;-69
2021/12/04 02:28:28;;;;;;;;;1.00;0.00;;;;;;;;5041140;28;45442;-69
2021/12/04 02:30:53;;;;;;;;;0.00;0.00;;;;;;;;5032212;28;45370;-69
2021/12/04 02:33:20;;;;;;;;;0.00;0.00;;;;;;;;5042128;28;45335;-69
2021/12/04 02:35:47;;;;;;;;;2.00;0.00;;;;;;;;5040060;28;45524;-69
2021/12/04 02:38:12;;;;;;;;;0.00;0.00;;;;;;;;5039426;28;45581;-69
2021/12/04 02:40:43;;;;;;;;;0.00;0.00;;;;;;;;5037109;28;45351;-69
2021/12/04 02:43:08;;;;;;;;;0.00;0.00;;;;;;;;5034341;28;45375;-68
2021/12/04 02:45:33;;;;;;;;;0.00;0.00;;;;;;;;5043196;28;45366;-69
2021/12/04 02:47:59;;;;;;;;;0.00;0.00;;;;;;;;5037157;28;45470;-69
2021/12/04 02:50:24;;;;;;;;;0.00;0.00;;;;;;;;5039956;28;45531;-68
2021/12/04 02:52:49;;;;;;;;;0.00;0.00;;;;;;;;5047763;28;45422;-68
2021/12/04 02:55:16;;;;;;;;;0.00;0.00;;;;;;;;5040278;28;46397;-69
2021/12/04 02:57:44;;;;;;;;;0.00;0.00;;;;;;;;5034918;28;45419;-70
2021/12/04 03:00:12;;;;;;;;;0.00;0.00;;;;;;;;5045164;28;45365;-69
2021/12/04 03:02:38;;;;;;;;;0.00;0.00;;;;;;;;5047372;28;45540;-69
2021/12/04 03:05:07;;;;;;;;;0.00;0.00;;;;;;;;5043900;28;46442;-70
2021/12/04 03:07:32;;;;;;;;;0.00;0.00;;;;;;;;5040217;28;45498;-69
2021/12/04 03:09:58;;;;;;;;;0.00;0.00;;;;;;;;5042523;28;45508;-69
2021/12/04 03:12:25;;;;;;;;;0.00;0.00;;;;;;;;5040652;28;45488;-69
2021/12/04 03:14:53;;;;;;;;;0.00;0.00;;;;;;;;5037141;28;45591;-69
2021/12/04 03:17:21;;;;;;;;;2.50;0.00;;;;;;;;5040102;28;45445;-69
2021/12/04 03:19:49;;;;;;;;;0.00;0.00;;;;;;;;5040717;28;45634;-69
2021/12/04 03:22:15;;;;;;;;;0.00;0.00;;;;;;;;5043353;28;45290;-68
2021/12/04 03:24:42;;;;;;;;;1.00;0.00;;;;;;;;5042007;28;45602;-69
2021/12/04 03:27:07;;;;;;;;;0.00;0.00;;;;;;;;5045160;28;45845;-69
2021/12/04 03:29:37;;;;;;;;;0.75;0.00;;;;;;;;5038181;28;45542;-69
2021/12/04 03:42:31;;;;;;;;;1.00;0.00;;;;;;;;5047101;28;45423;-69
2021/12/04 03:44:56;;;;;;;;;0.00;0.00;;;;;;;;5035029;28;45502;-69
2021/12/04 03:47:22;;;;;;;;;0.00;0.00;;;;;;;;5034858;28;45299;-69
2021/12/04 03:49:48;;;;;;;;;0.00;0.00;;;;;;;;5039301;28;45576;-68
2021/12/04 03:52:13;;;;;;;;;0.00;0.00;;;;;;;;5043199;28;45514;-69
2021/12/04 03:54:38;;;;;;;;;0.00;0.00;;;;;;;;5042191;28;48247;-69
2021/12/04 03:57:04;;;;;;;;;1.00;0.00;;;;;;;;5040033;28;45532;-69
2021/12/04 03:59:34;;;;;;;;;0.25;0.00;;;;;;;;5044496;28;45565;-69
2021/12/04 04:01:59;;;;;;;;;1.00;0.00;;;;;;;;5039787;28;45657;-69
2021/12/04 04:04:24;;;;;;;;;0.00;0.00;;;;;;;;5050734;28;45497;-70
2021/12/04 04:06:49;;;;;;;;;0.00;0.00;;;;;;;;5035857;28;45435;-69
2021/12/04 04:09:15;;;;;;;;;0.00;0.00;;;;;;;;5041046;28;45421;-69
2021/12/04 04:11:41;;;;;;;;;0.00;0.00;;;;;;;;5039452;28;45531;-69
2021/12/04 04:14:06;;;;;;;;;0.50;0.00;;;;;;;;5037006;28;47210;-69
2021/12/04 04:16:35;;;;;;;;;0.00;0.00;;;;;;;;5036150;28;45420;-69
2021/12/04 04:19:00;;;;;;;;;0.00;0.00;;;;;;;;5019139;28;45450;-69
2021/12/04 04:21:25;;;;;;;;;0.00;0.00;;;;;;;;5044250;28;45443;-69
2021/12/04 04:23:50;;;;;;;;;0.00;0.00;;;;;;;;5042791;28;45596;-69
2021/12/04 04:26:15;;;;;;;;;0.00;0.00;;;;;;;;5039779;28;45368;-69
2021/12/04 04:28:41;;;;;;;;;0.00;0.00;;;;;;;;5042311;28;45461;-69
2021/12/04 04:31:08;;;;;;;;;0.00;0.00;;;;;;;;5035177;28;45444;-69
2021/12/04 04:33:37;;;;;;;;;0.00;0.00;;;;;;;;5051173;28;45469;-69
2021/12/04 04:36:16;;;;;;;;;0.00;0.00;;;;;;;;5044396;28;45730;-69
2021/12/04 04:38:49;;;;;;;;;0.00;0.00;;;;;;;;5040315;28;45407;-69
2021/12/04 04:57:49;;;;;;;;;0.00;0.00;;;;;;;;5048340;28;45713;-69
2021/12/04 05:11:10;;;;;;;;;0.00;0.00;;;;;;;;5026916;28;45462;-70
2021/12/04 05:13:36;;;;;;;;;0.25;0.00;;;;;;;;5028731;28;45611;-69
2021/12/04 05:16:12;;;;;;;;;2.00;0.00;;;;;;;;5033425;28;45438;-69
2021/12/04 05:18:40;;;;;;;;;0.00;0.00;;;;;;;;5045860;28;45845;-69
2021/12/04 05:21:06;;;;;;;;;0.00;0.00;;;;;;;;5041936;28;45408;-69
2021/12/04 05:23:31;;;;;;;;;0.00;0.00;;;;;;;;5042676;28;45487;-69
2021/12/04 05:25:57;;;;;;;;;0.33;0.00;;;;;;;;5042901;28;45579;-69
2021/12/04 05:28:22;;;;;;;;;0.00;0.00;;;;;;;;5043987;28;45601;-69
2021/12/04 05:30:48;;;;;;;;;0.00;0.00;;;;;;;;5034869;28;45403;-69
2021/12/04 05:33:14;;;;;;;;;0.00;0.00;;;;;;;;5049306;28;45411;-69
2021/12/04 05:35:39;;;;;;;;;0.00;0.00;;;;;;;;5040625;28;46315;-68
2021/12/04 05:38:04;;;;;;;;;0.00;0.00;;;;;;;;5044339;28;46216;-68
2021/12/04 05:40:29;;;;;;;;;0.00;0.00;;;;;;;;5044103;28;45507;-69
2021/12/04 05:43:01;;;;;;;;;1.00;0.00;;;;;;;;5040975;28;45528;-69
2021/12/04 05:45:27;;;;;;;;;0.00;0.00;;;;;;;;5042311;28;47215;-69
2021/12/04 05:56:01;;;;;;;;;0.00;0.00;;;;;;;;5006933;28;46020;-69
2021/12/04 05:58:27;;;;;;;;;0.00;0.00;;;;;;;;5009910;28;46132;-69
2021/12/04 06:00:53;;;;;;;;;0.00;0.00;;;;;;;;5011263;28;45511;-69
2021/12/04 06:03:19;;;;;;;;;0.00;0.00;;;;;;;;5013747;28;45510;-68
2021/12/04 06:05:44;;;;;;;;;0.25;0.00;;;;;;;;5017102;28;46017;-69
2021/12/04 06:08:09;;;;;;;;;0.25;0.00;;;;;;;;5010109;28;45545;-69
2021/12/04 06:10:35;;;;;;;;;0.00;0.00;;;;;;;;5011394;28;45450;-69
2021/12/04 06:13:00;;;;;;;;;0.00;0.00;;;;;;;;4993362;28;45506;-69
2021/12/04 06:15:26;;;;;;;;;0.25;0.00;;;;;;;;5011063;28;45522;-69
2021/12/04 06:17:53;;;;;;;;;0.00;0.00;;;;;;;;5008411;28;45467;-69
2021/12/04 06:23:03;;;;;;;;;0.00;0.00;;;;;;;;5008046;28;45596;-69
2021/12/04 06:25:28;;;;;;;;;1.00;0.00;;;;;;;;5005822;28;46426;-69
2021/12/04 06:27:54;;;;;;;;;0.00;0.00;;;;;;;;5008565;28;45577;-69
2021/12/04 06:30:20;;;;;;;;;0.00;0.00;;;;;;;;5027075;28;45541;-70
2021/12/04 06:32:48;;;;;;;;;1.00;0.00;;;;;;;;5033338;28;45566;-69
2021/12/04 06:35:13;;;;;;;;;0.00;0.00;;;;;;;;5038460;28;45493;-69
2021/12/04 06:37:38;;;;;;;;;0.25;0.25;;;;;;;;5036091;28;45493;-69
2021/12/04 06:40:05;;;;;;;;;1.00;1.00;;;;;;;;5032847;28;45384;-69
2021/12/04 06:42:30;;;;;;;;;0.00;0.00;;;;;;;;5040048;28;45669;-69
2021/12/04 06:44:56;;;;;;;;;0.00;0.00;;;;;;;;5046708;28;45406;-69
2021/12/04 06:47:22;;;;;;;;;0.00;0.00;;;;;;;;5041361;28;45728;-69
2021/12/04 06:49:48;;;;;;;;;1.00;0.00;;;;;;;;5033845;28;45887;-69
2021/12/04 06:52:20;;;;;;;;;0.00;0.00;;;;;;;;5035188;28;45706;-69
2021/12/04 06:54:58;;;;;;;;;0.75;0.00;;;;;;;;5041578;28;46763;-69
2021/12/04 06:57:23;;;;;;;;;0.00;0.00;;;;;;;;5042977;28;45424;-69
2021/12/04 06:59:52;;;;;;;;;0.50;0.00;;;;;;;;5031630;28;45624;-69
2021/12/04 07:02:17;;;;;;;;;0.50;0.00;;;;;;;;5033911;28;45487;-69
2021/12/04 07:04:43;;;;;;;;;0.00;0.00;;;;;;;;5036317;28;45616;-69
2021/12/04 07:07:08;;;;;;;;;1.25;1.00;;;;;;;;5032269;28;45471;-69
2021/12/04 07:09:34;;;;;;;;;1.67;0.00;;;;;;;;5037905;28;45428;-70
2021/12/04 07:12:00;;;;;;;;;2.00;0.00;;;;;;;;5042642;28;45594;-69
2021/12/04 07:14:25;;;;;;;;;1.50;0.00;;;;;;;;5040352;28;46207;-69
2021/12/04 07:16:51;;;;;;;;;0.00;0.00;;;;;;;;5041215;28;45766;-69
2021/12/04 07:19:16;;;;;;;;;1.00;1.00;;;;;;;;5035787;28;45451;-69
2021/12/04 07:21:43;;;;;;;;;0.33;0.33;;;;;;;;5038484;28;45415;-69
2021/12/04 07:24:10;;;;;;;;;0.00;0.00;;;;;;;;5040854;28;45598;-69
2021/12/04 07:26:35;;;;;;;;;0.00;0.00;;;;;;;;5039439;28;45474;-69
2021/12/04 07:29:00;;;;;;;;;2.00;1.00;;;;;;;;5039468;28;45445;-69
2021/12/04 07:31:26;;;;;;;;;2.00;1.00;;;;;;;;5048143;28;45458;-69
2021/12/04 07:33:51;;;;;;;;;1.00;1.00;;;;;;;;5035783;28;46538;-70
2021/12/04 07:36:16;;;;;;;;;1.00;1.00;;;;;;;;5046471;28;45476;-70
2021/12/04 07:38:41;;;;;;;;;1.00;1.00;;;;;;;;5040010;28;45634;-69
2021/12/04 07:41:08;;;;;;;;;1.33;1.33;;;;;;;;5045884;28;45419;-70
2021/12/04 07:43:33;;;;;;;;;1.00;1.00;;;;;;;;5038383;28;46330;-69
2021/12/04 07:45:59;;;;;;;;;1.00;1.00;;;;;;;;5050759;28;45332;-69
2021/12/04 07:48:25;;;;;;;;;2.25;2.25;;;;;;;;5042568;28;45595;-69
2021/12/04 07:50:50;;;;;;;;;2.00;2.00;;;;;;;;5041865;28;45469;-70
2021/12/04 07:53:16;;;;;;;;;2.00;2.00;;;;;;;;5044790;28;46334;-70
2021/12/04 07:55:41;;;;;;;;;3.00;3.00;;;;;;;;5033463;28;45508;-70
2021/12/04 07:58:06;;;;;;;;;2.00;2.00;;;;;;;;5035888;28;45532;-69
2021/12/04 08:00:32;;;;;;;;;3.00;2.50;;;;;;;;5032541;28;45425;-70
2021/12/04 08:02:57;;;;;;;;;2.00;2.00;;;;;;;;5039062;28;45495;-70
2021/12/04 08:05:22;;;;;;;;;2.50;1.00;;;;;;;;5040475;28;45565;-71
2021/12/04 08:07:47;;;;;;;;;2.00;2.00;;;;;;;;5047949;28;45363;-70
2021/12/04 08:10:15;;;;;;;;;1.00;1.00;;;;;;;;5037495;28;45429;-69
2021/12/04 08:12:40;;;;;;;;;0.00;0.00;;;;;;;;5053488;28;46423;-69
2021/12/04 08:15:07;;;;;;;;;0.00;0.00;;;;;;;;5029431;28;45977;-69
2021/12/04 08:17:32;;;;;;;;;0.00;0.00;;;;;;;;5036531;28;45408;-70
2021/12/04 08:19:58;;;;;;;;;0.00;0.00;;;;;;;;5039052;28;45473;-69
2021/12/04 08:22:23;;;;;;;;;0.00;0.00;;;;;;;;5037582;28;45481;-69
2021/12/04 08:24:48;;;;;;;;;0.00;0.00;;;;;;;;5035855;28;45497;-70
2021/12/04 08:27:15;;;;;;;;;0.00;0.00;;;;;;;;5040686;28;45474;-69
2021/12/04 08:29:40;;;;;;;;;0.00;0.00;;;;;;;;5036003;28;45550;-69
2021/12/04 08:32:07;;;;;;;;;0.00;0.00;;;;;;;;5042237;28;45536;-69
2021/12/04 08:34:32;;;;;;;;;0.00;0.00;;;;;;;;5033462;28;45557;-69
2021/12/04 08:36:57;;;;;;;;;0.00;0.00;;;;;;;;5042404;28;45488;-69
2021/12/04 08:39:23;;;;;;;;;0.67;0.00;;;;;;;;5041961;28;45341;-70
2021/12/04 08:41:48;;;;;;;;;0.00;0.00;;;;;;;;5039200;28;46659;-70
2021/12/04 08:44:14;;;;;;;;;0.00;0.00;;;;;;;;5038706;28;45418;-70
2021/12/04 08:46:39;;;;;;;;;0.00;0.00;;;;;;;;5037513;28;45445;-70
2021/12/04 08:49:05;;;;;;;;;0.00;0.00;;;;;;;;5033779;28;45432;-70
2021/12/04 08:51:31;;;;;;;;;0.00;0.00;;;;;;;;5040078;28;45443;-70
2021/12/04 08:53:56;;;;;;;;;0.00;0.00;;;;;;;;5038188;28;45390;-70
2021/12/04 08:56:21;;;;;;;;;1.00;0.00;;;;;;;;5043229;28;45447;-70
2021/12/04 08:58:47;;;;;;;;;0.00;0.00;;;;;;;;5047782;28;45371;-70
2021/12/04 09:01:22;;;;;;;;;0.00;0.00;;;;;;;;5033530;28;46592;-70
2021/12/04 09:03:48;;;;;;;;;0.00;0.00;;;;;;;;5034107;28;45343;-70
2021/12/04 09:06:14;;;;;;;;;0.00;0.00;;;;;;;;5040132;28;45379;-70
2021/12/04 09:08:39;;;;;;;;;0.00;0.00;;;;;;;;5044614;28;45494;-70
2021/12/04 09:11:09;;;;;;;;;0.00;0.00;;;;;;;;5043670;28;46072;-70
2021/12/04 09:13:34;;;;;;;;;0.75;0.00;;;;;;;;5046589;28;45686;-70
2021/12/04 09:16:00;;;;;;;;;0.00;0.00;;;;;;;;5050501;28;45422;-70
2021/12/04 09:18:26;;;;;;;;;0.50;0.00;;;;;;;;5037890;28;45464;-70
2021/12/04 09:20:53;;;;;;;;;0.00;0.00;;;;;;;;5040254;28;45553;-70
2021/12/04 09:23:20;;;;;;;;;0.00;0.00;;;;;;;;5036851;28;45789;-70
2021/12/04 09:25:51;;;;;;;;;0.00;0.00;;;;;;;;5040171;28;45560;-70
2021/12/04 09:34:33;;;;;;;;;0.00;0.00;;;;;;;;5030045;28;45420;-71
2021/12/04 09:36:46;;;;;;;;;0.75;0.00;;;;;;;;5008330;28;45429;-71
2021/12/04 10:17:09;;;;;;;;;0.00;0.00;;;;;;;;5023475;28;45934;-70
2021/12/04 10:22:18;;;;;;;;;1.25;0.00;;;;;;;;5032552;28;45310;-72
2021/12/04 10:25:01;;;;;;;;;0.00;0.00;;;;;;;;5033114;28;45359;-72
2021/12/04 10:32:23;;;;;;;;;0.00;0.00;;;;;;;;5029354;28;45308;-72
2021/12/04 10:33:13;;;;;;;;;0.00;0.00;;;;;;;;5018173;28;45661;-71
2021/12/04 10:35:39;;;;;;;;;2.00;0.00;;;;;;;;5027988;28;45998;-72
2021/12/04 10:38:07;;;;;;;;;0.00;0.00;;;;;;;;5027915;28;45303;-72
2021/12/04 10:40:40;;;;;;;;;1.00;1.00;;;;;;;;5028356;28;45441;-72
2021/12/04 10:43:12;;;;;;;;;0.00;0.00;;;;;;;;5016933;28;45413;-71
2021/12/04 10:45:40;;;;;;;;;0.00;0.00;;;;;;;;5031147;28;46186;-71
2021/12/04 10:48:08;;;;;;;;;2.00;1.00;;;;;;;;5047967;28;45308;-72
2021/12/04 10:50:42;;;;;;;;;0.00;0.00;;;;;;;;5038522;28;45455;-72
2021/12/04 10:53:12;;;;;;;;;0.50;0.50;;;;;;;;5046552;28;47692;-71
2021/12/04 10:58:36;;;;;;;;;2.00;0.50;;;;;;;;5036375;28;45854;-74
2021/12/04 11:01:22;;;;;;;;;1.75;0.00;;;;;;;;5019304;28;45630;-72
2021/12/04 11:22:35;;;;;;;;;0.00;0.00;;;;;;;;5012854;28;45511;-72
2021/12/04 11:38:44;;;;;;;;;0.00;0.00;;;;;;;;5004651;28;45618;-73
2021/12/04 11:41:16;;;;;;;;;0.75;0.00;;;;;;;;5006488;28;45554;-73
2021/12/04 11:43:55;;;;;;;;;1.00;1.00;;;;;;;;5021797;28;45419;-73
2021/12/04 11:46:29;;;;;;;;;0.00;0.00;;;;;;;;5009884;28;45508;-73
2021/12/04 11:48:59;;;;;;;;;1.75;0.75;;;;;;;;5016112;28;46177;-73
2021/12/04 11:51:25;;;;;;;;;0.00;0.00;;;;;;;;5009932;28;45333;-73
2021/12/04 11:53:51;;;;;;;;;1.75;0.75;;;;;;;;5018107;28;45799;-72
2021/12/04 11:56:18;;;;;;;;;1.00;1.00;;;;;;;;5015980;28;45425;-73
2021/12/04 11:58:44;;;;;;;;;2.25;2.25;;;;;;;;5013110;28;45559;-73
2021/12/04 12:01:22;;;;;;;;;0.75;0.75;;;;;;;;5030269;28;45942;-73
2021/12/04 12:03:52;;;;;;;;;1.00;0.25;;;;;;;;5014505;28;45478;-73
2021/12/04 12:06:26;;;;;;;;;0.25;0.25;;;;;;;;5023116;28;45699;-73
2021/12/04 12:09:00;;;;;;;;;0.50;0.00;;;;;;;;5028417;28;46255;-73
2021/12/04 12:11:27;;;;;;;;;2.75;0.00;;;;;;;;5023980;28;45391;-73
2021/12/04 12:14:14;;;;;;;;;1.50;1.50;;;;;;;;5028911;28;45415;-73
2021/12/04 12:16:50;;;;;;;;;1.00;1.00;;;;;;;;5016352;28;45482;-73
2021/12/04 12:19:25;;;;;;;;;1.00;1.00;;;;;;;;5034336;28;45494;-74
2021/12/04 12:21:58;;;;;;;;;0.75;0.75;;;;;;;;5021319;28;45577;-74
2021/12/04 12:33:09;;;;;;;;;1.00;1.00;;;;;;;;5029399;28;45321;-74
2021/12/04 12:38:32;;;;;;;;;3.25;1.50;;;;;;;;5019055;28;45549;-74
2021/12/04 12:40:59;;;;;;;;;2.00;2.00;;;;;;;;5021863;28;48243;-74
2021/12/04 12:43:32;;;;;;;;;3.25;2.00;;;;;;;;5016884;28;45797;-73
2021/12/04 12:45:58;;;;;;;;;1.50;1.00;;;;;;;;5030587;28;45492;-74
2021/12/04 12:48:24;;;;;;;;;1.25;1.00;;;;;;;;5032183;28;45530;-75
2021/12/04 12:50:49;;;;;;;;;0.75;0.75;;;;;;;;5030339;28;45764;-74
2021/12/04 12:53:19;;;;;;;;;2.00;2.00;;;;;;;;5037341;28;46375;-74
2021/12/04 12:55:47;;;;;;;;;4.50;1.50;;;;;;;;5036645;28;45503;-74
2021/12/04 12:58:12;;;;;;;;;2.50;1.00;;;;;;;;5047302;28;45511;-74
2021/12/04 13:11:43;;;;;;;;;3.50;1.50;;;;;;;;5031174;28;45893;-75
2021/12/04 13:14:11;;;;;;;;;4.50;2.00;;;;;;;;5037877;28;46139;-75
2021/12/04 13:16:37;;;;;;;;;1.75;1.75;;;;;;;;5034795;28;45520;-75
2021/12/04 13:19:06;;;;;;;;;3.00;3.00;;;;;;;;5035683;28;45374;-74
2021/12/04 13:21:36;;;;;;;;;2.00;2.00;;;;;;;;5021281;28;46247;-75
2021/12/04 13:24:02;;;;;;;;;2.00;2.00;;;;;;;;5033065;28;45502;-75
2021/12/04 13:26:29;;;;;;;;;3.00;1.75;;;;;;;;5028824;28;45505;-75
2021/12/04 13:28:56;;;;;;;;;1.00;1.00;;;;;;;;5039395;28;45537;-74
2021/12/04 13:31:21;;;;;;;;;1.50;1.25;;;;;;;;5046938;28;45323;-75
2021/12/04 13:33:48;;;;;;;;;3.00;0.00;;;;;;;;5035588;28;45707;-75
2021/12/04 13:36:22;;;;;;;;;3.50;1.50;;;;;;;;5038242;28;45538;-75
2021/12/04 13:38:58;;;;;;;;;2.00;1.75;;;;;;;;5043369;28;45693;-74
2021/12/04 13:41:23;;;;;;;;;3.00;1.00;;;;;;;;5062565;27;47308;-74
2021/12/04 13:43:53;;;;;;;;;2.00;2.00;;;;;;;;5069536;27;45550;-74
2021/12/04 13:46:18;;;;;;;;;2.00;1.25;;;;;;;;5022298;28;45339;-75
2021/12/04 13:48:43;;;;;;;;;1.50;1.50;;;;;;;;5046496;28;45499;-74
2021/12/04 13:51:09;;;;;;;;;6.67;5.00;;;;;;;;5035063;28;46079;-75
2021/12/04 13:53:36;;;;;;;;;8.25;7.50;;;;;;;;5031990;28;45452;-75
2021/12/04 13:56:10;;;;;;;;;0.75;0.75;;;;;;;;5040750;28;45698;-78
2021/12/04 13:58:43;;;;;;;;;2.75;1.00;;;;;;;;5039498;28;45541;-75
2021/12/04 14:01:08;;;;;;;;;2.00;0.50;;;;;;;;5041661;28;45595;-75
2021/12/04 14:03:34;;;;;;;;;1.00;1.00;;;;;;;;5038107;28;45372;-76
2021/12/04 14:05:59;;;;;;;;;1.00;1.00;;;;;;;;5048014;28;45920;-76
2021/12/04 14:08:24;;;;;;;;;1.50;1.00;;;;;;;;5042389;28;45481;-75
2021/12/04 14:10:50;;;;;;;;;2.67;2.00;;;;;;;;5046995;28;46675;-75
2021/12/04 14:13:20;;;;;;;;;1.25;1.25;;;;;;;;5034365;28;45622;-76
2021/12/04 14:15:47;;;;;;;;;2.25;0.50;;;;;;;;5034745;28;45308;-74
2021/12/04 14:18:15;;;;;;;;;3.00;1.50;;;;;;;;5043748;28;45304;-75
2021/12/04 14:20:41;;;;;;;;;5.25;1.75;;;;;;;;5045416;28;47382;-75
2021/12/04 14:23:07;;;;;;;;;7.25;2.00;;;;;;;;5043467;28;45710;-74
2021/12/04 14:25:32;;;;;;;;;3.75;1.75;;;;;;;;5037224;28;45729;-74
2021/12/04 14:27:59;;;;;;;;;1.75;1.00;;;;;;;;5041868;28;45328;-74
2021/12/04 14:30:32;;;;;;;;;5.25;2.00;;;;;;;;5049837;28;46161;-74
2021/12/04 14:32:58;;;;;;;;;1.00;0.75;;;;;;;;5052411;28;45814;-74
2021/12/04 14:35:30;;;;;;;;;2.00;1.00;;;;;;;;5050325;28;45393;-74
2021/12/04 14:37:56;;;;;;;;;1.00;0.75;;;;;;;;5046990;28;45625;-74
2021/12/04 14:40:22;;;;;;;;;2.00;0.75;;;;;;;;5038657;28;45323;-74
2021/12/04 14:42:48;;;;;;;;;4.00;1.75;;;;;;;;5049827;28;45834;-74
2021/12/04 14:45:17;;;;;;;;;1.25;0.50;;;;;;;;5036636;28;45390;-74
2021/12/04 14:47:45;;;;;;;;;2.00;1.25;;;;;;;;5037464;28;45433;-74
2021/12/04 14:50:12;;;;;;;;;2.25;1.25;;;;;;;;5029115;28;45776;-74
2021/12/04 14:52:37;;;;;;;;;2.00;1.00;;;;;;;;5024652;28;45697;-74
2021/12/04 14:55:20;;;;;;;;;2.67;1.00;;;;;;;;5018822;28;45595;-74
2021/12/04 14:57:46;;;;;;;;;2.50;0.25;;;;;;;;5020701;28;45491;-74
2021/12/04 15:00:14;;;;;;;;;7.50;1.00;;;;;;;;5037376;28;48618;-74
2021/12/04 15:02:39;;;;;;;;;2.50;0.25;;;;;;;;5037458;28;45760;-74
2021/12/04 15:05:06;;;;;;;;;1.00;0.00;;;;;;;;5044342;28;45454;-74
2021/12/04 15:07:33;;;;;;;;;2.25;1.50;;;;;;;;5038961;28;45421;-74
2021/12/04 15:09:59;;;;;;;;;2.50;1.00;;;;;;;;5035124;28;45564;-74
2021/12/04 15:12:24;;;;;;;;;3.25;1.00;;;;;;;;5039257;28;45826;-74
2021/12/04 15:14:54;;;;;;;;;3.00;0.67;;;;;;;;5031685;28;45519;-74
2021/12/04 15:17:19;;;;;;;;;0.75;0.25;;;;;;;;5027921;28;45534;-74
2021/12/04 15:19:46;;;;;;;;;0.67;0.67;;;;;;;;5021880;28;46422;-74
2021/12/04 15:22:16;;;;;;;;;3.00;1.00;;;;;;;;5020164;28;45825;-74
2021/12/04 15:24:42;;;;;;;;;2.75;2.75;;;;;;;;5027954;28;45499;-74
2021/12/04 15:27:09;;;;;;;;;4.00;1.00;;;;;;;;5022648;28;45497;-74
2021/12/04 15:29:35;;;;;;;;;1.00;0.75;;;;;;;;5023249;28;45541;-74
2021/12/04 15:32:05;;;;;;;;;1.75;0.00;;;;;;;;5036643;28;45436;-74
2021/12/04 15:34:38;;;;;;;;;2.00;1.50;;;;;;;;5023028;28;45538;-74
2021/12/04 15:37:06;;;;;;;;;2.00;1.00;;;;;;;;5044998;28;45500;-74
2021/12/04 15:39:35;;;;;;;;;1.00;0.75;;;;;;;;5017459;28;46150;-74
2021/12/04 15:42:20;;;;;;;;;1.75;1.75;;;;;;;;5019099;28;45847;-74
2021/12/04 15:47:40;;;;;;;;;3.00;1.00;;;;;;;;5019923;28;45474;-74
2021/12/04 15:55:49;;;;;;;;;0.00;0.00;;;;;;;;5024490;28;45438;-74
2021/12/04 15:58:17;;;;;;;;;2.75;1.00;;;;;;;;5022124;28;45662;-74
2021/12/04 16:00:45;;;;;;;;;2.00;0.00;;;;;;;;5012660;28;45664;-74
2021/12/04 16:03:13;;;;;;;;;2.25;0.00;;;;;;;;5012899;28;46017;-74
2021/12/04 16:05:42;;;;;;;;;0.00;0.00;;;;;;;;5025015;28;45497;-74
2021/12/04 16:08:11;;;;;;;;;0.00;0.00;;;;;;;;5027927;28;45745;-73
2021/12/04 16:10:37;;;;;;;;;1.00;1.00;;;;;;;;5027352;28;45423;-74
2021/12/04 16:13:04;;;;;;;;;0.75;0.75;;;;;;;;5029177;28;45387;-74
2021/12/04 16:15:30;;;;;;;;;0.50;0.50;;;;;;;;5022248;28;45549;-74
2021/12/04 16:17:55;;;;;;;;;0.25;0.25;;;;;;;;5009760;28;45460;-74
2021/12/04 16:20:22;;;;;;;;;0.50;0.00;;;;;;;;5020334;28;45414;-74
2021/12/04 16:22:49;;;;;;;;;0.00;0.00;;;;;;;;5022539;28;45599;-74
2021/12/04 16:25:20;;;;;;;;;0.00;0.00;;;;;;;;5013151;28;45603;-74
2021/12/04 16:27:53;;;;;;;;;1.00;0.00;;;;;;;;5012401;28;45439;-74
2021/12/04 16:37:47;;;;;;;;;0.00;0.00;;;;;;;;5025907;28;45520;-74
2021/12/04 16:40:15;;;;;;;;;0.00;0.00;;;;;;;;5015411;28;45473;-74
2021/12/04 16:42:40;;;;;;;;;0.00;0.00;;;;;;;;5016317;28;45840;-74
2021/12/04 16:45:08;;;;;;;;;0.00;0.00;;;;;;;;5027635;28;45406;-74
2021/12/04 16:47:41;;;;;;;;;0.00;0.00;;;;;;;;5024482;28;45533;-74
2021/12/04 16:50:11;;;;;;;;;0.00;0.00;;;;;;;;5022263;28;45410;-74
2021/12/04 16:58:12;;;;;;;;;0.00;0.00;;;;;;;;5016986;28;45421;-74
2021/12/04 17:00:38;;;;;;;;;0.00;0.00;;;;;;;;5028884;28;45442;-73
2021/12/04 17:03:03;;;;;;;;;0.00;0.00;;;;;;;;5030714;28;45446;-74
2021/12/04 17:05:32;;;;;;;;;0.00;0.00;;;;;;;;5031835;28;45546;-74
2021/12/04 17:07:57;;;;;;;;;0.25;0.00;;;;;;;;5033113;28;45597;-73
2021/12/04 17:10:23;;;;;;;;;0.00;0.00;;;;;;;;5029429;28;45556;-75
2021/12/04 17:12:48;;;;;;;;;0.00;0.00;;;;;;;;5033966;28;45398;-73
2021/12/04 17:15:13;;;;;;;;;0.00;0.00;;;;;;;;5037592;28;45499;-73
2021/12/04 17:17:43;;;;;;;;;0.00;0.00;;;;;;;;5052401;28;45525;-72
2021/12/04 17:20:09;;;;;;;;;0.00;0.00;;;;;;;;5018529;28;45786;-73
2021/12/04 17:22:34;;;;;;;;;0.75;0.00;;;;;;;;5023691;28;45473;-72
2021/12/04 17:24:59;;;;;;;;;0.00;0.00;;;;;;;;5029636;28;45370;-72
2021/12/04 17:27:25;;;;;;;;;0.67;0.00;;;;;;;;5029007;28;45637;-73
2021/12/04 17:29:53;;;;;;;;;0.25;0.25;;;;;;;;5028791;28;45910;-72
2021/12/04 17:32:20;;;;;;;;;0.00;0.00;;;;;;;;5022659;28;45308;-73
2021/12/04 17:34:46;;;;;;;;;0.00;0.00;;;;;;;;5019710;28;45582;-72
2021/12/04 17:37:11;;;;;;;;;1.00;0.00;;;;;;;;5027510;28;45557;-72
2021/12/04 17:39:36;;;;;;;;;0.75;0.00;;;;;;;;5031131;28;46099;-73
2021/12/04 17:42:02;;;;;;;;;1.00;1.00;;;;;;;;5031695;28;45492;-73
2021/12/04 17:44:27;;;;;;;;;1.00;0.25;;;;;;;;5030724;28;45366;-73
2021/12/04 17:46:54;;;;;;;;;1.00;1.00;;;;;;;;5036333;28;45989;-72
2021/12/04 17:49:19;;;;;;;;;0.25;0.25;;;;;;;;5023283;28;47071;-73
2021/12/04 17:51:45;;;;;;;;;0.75;0.75;;;;;;;;5042962;28;48585;-72
2021/12/04 17:54:11;;;;;;;;;1.25;1.00;;;;;;;;5024085;28;45459;-72